createdAt,value
2022-11-16T00:01:52.963Z,91.68
2022-11-16T00:04:20.893Z,91.70
2022-11-16T00:06:52.168Z,91.72
2022-11-16T00:09:22.671Z,91.74
2022-11-16T00:11:53.086Z,91.76
2022-11-16T00:14:22.491Z,91.79
2022-11-16T00:16:51.075Z,91.83
2022-11-16T00:19:19.552Z,91.84
2022-11-16T00:21:47.678Z,91.82
2022-11-16T00:24:17.674Z,91.80
2022-11-16T00:26:46.558Z,91.79
2022-11-16T00:29:20.949Z,91.76
2022-11-16T00:31:50.033Z,91.74
2022-11-16T00:34:18.733Z,91.73
2022-11-16T00:36:47.135Z,91.72
2022-11-16T00:39:17.068Z,91.76
2022-11-16T00:41:45.409Z,91.76
2022-11-16T00:44:14.079Z,91.83
2022-11-16T00:46:42.047Z,91.82
2022-11-16T00:49:10.427Z,91.84
2022-11-16T00:51:38.610Z,91.85
2022-11-16T00:54:08.102Z,91.86
2022-11-16T00:56:37.097Z,91.84
2022-11-16T00:59:05.062Z,91.83
2022-11-16T01:01:33.483Z,91.82
2022-11-16T01:04:01.613Z,91.82
2022-11-16T01:06:29.497Z,91.83
2022-11-16T01:08:57.545Z,91.81
2022-11-16T01:11:43.873Z,91.79
2022-11-16T01:14:12.161Z,91.78
2022-11-16T01:16:40.192Z,91.79
2022-11-16T01:19:08.160Z,91.77
2022-11-16T01:21:36.040Z,91.73
2022-11-16T01:24:04.102Z,91.74
2022-11-16T01:26:31.960Z,91.68
2022-11-16T01:29:00.385Z,91.64
2022-11-16T01:31:28.307Z,91.61
2022-11-16T01:33:56.275Z,91.61
2022-11-16T01:36:24.622Z,91.60
2022-11-16T01:38:52.548Z,91.59
2022-11-16T01:41:23.044Z,91.55
2022-11-16T01:43:53.578Z,91.51
2022-11-16T01:46:22.026Z,91.49
2022-11-16T01:48:54.948Z,91.44
2022-11-16T01:51:23.939Z,91.42
2022-11-16T01:53:52.249Z,91.39
2022-11-16T01:56:22.015Z,91.38
2022-11-16T01:58:50.292Z,91.32
2022-11-16T02:01:18.268Z,91.30
2022-11-16T02:03:46.225Z,91.26
2022-11-16T02:06:26.322Z,91.24
2022-11-16T02:09:38.271Z,91.24
2022-11-16T02:12:23.443Z,91.22
2022-11-16T02:15:29.670Z,91.20
2022-11-16T02:18:06.588Z,91.17
2022-11-16T02:21:17.252Z,91.14
2022-11-16T02:24:22.495Z,91.05
2022-11-16T02:27:08.792Z,91.03
2022-11-16T02:29:42.904Z,90.90
2022-11-16T02:32:15.685Z,90.80
2022-11-16T02:34:50.888Z,90.80
2022-11-16T02:37:22.575Z,90.82
2022-11-16T02:39:56.382Z,90.82
2022-11-16T02:42:31.320Z,90.79
2022-11-16T02:45:00.975Z,90.79
2022-11-16T02:47:33.515Z,90.69
2022-11-16T02:50:08.732Z,90.48
2022-11-16T02:52:38.057Z,90.35
2022-11-16T02:55:07.642Z,90.23
2022-11-16T02:57:51.891Z,90.13
2022-11-16T03:00:33.780Z,90.03
2022-11-16T03:03:04.619Z,89.98
2022-11-16T03:05:41.402Z,89.80
2022-11-16T03:08:09.257Z,89.86
2022-11-16T03:10:59.650Z,89.69
2022-11-16T03:13:31.662Z,89.42
2022-11-16T03:16:03.801Z,89.39
2022-11-16T03:18:32.229Z,89.25
2022-11-16T03:21:17.432Z,89.25
2022-11-16T03:23:46.355Z,89.31
2022-11-16T03:26:20.024Z,89.42
2022-11-16T03:29:08.680Z,89.50
2022-11-16T03:31:47.535Z,89.45
2022-11-16T03:34:19.570Z,89.42
2022-11-16T03:36:50.137Z,89.46
2022-11-16T03:39:24.303Z,89.44
2022-11-16T03:41:52.581Z,89.44
2022-11-16T03:44:21.881Z,89.33
2022-11-16T03:46:49.947Z,89.27
2022-11-16T03:49:21.809Z,89.29
2022-11-16T03:51:50.483Z,89.27
2022-11-16T03:54:18.269Z,89.12
2022-11-16T03:56:46.024Z,89.12
2022-11-16T03:59:13.898Z,89.14
2022-11-16T04:01:44.738Z,89.14
2022-11-16T04:04:33.582Z,89.17
2022-11-16T04:07:20.145Z,89.10
2022-11-16T04:10:06.785Z,89.11
2022-11-16T04:12:53.802Z,89.07
2022-11-16T04:15:39.996Z,89.03
2022-11-16T04:18:29.178Z,89.09
2022-11-16T04:21:16.220Z,89.15
2022-11-16T04:24:03.367Z,89.18
2022-11-16T04:26:49.861Z,89.18
2022-11-16T04:29:18.893Z,89.01
2022-11-16T04:32:05.289Z,89.06
2022-11-16T04:34:52.102Z,89.07
2022-11-16T04:37:38.808Z,89.17
2022-11-16T04:40:07.810Z,89.18
2022-11-16T04:42:35.666Z,89.08
2022-11-16T04:45:22.681Z,89.09
2022-11-16T04:47:51.467Z,89.02
2022-11-16T04:50:20.209Z,89.06
2022-11-16T04:52:48.120Z,89.07
2022-11-16T04:55:15.986Z,89.05
2022-11-16T04:57:43.852Z,89.10
2022-11-16T05:00:12.850Z,89.05
2022-11-16T05:02:40.707Z,88.84
2022-11-16T05:05:09.471Z,88.92
2022-11-16T05:07:37.643Z,88.83
2022-11-16T05:10:07.126Z,88.80
2022-11-16T05:12:35.862Z,88.83
2022-11-16T05:15:05.216Z,88.88
2022-11-16T05:17:33.903Z,88.87
2022-11-16T05:20:20.472Z,88.97
2022-11-16T05:22:58.931Z,89.09
2022-11-16T05:25:27.951Z,89.10
2022-11-16T05:27:58.071Z,89.08
2022-11-16T05:30:25.829Z,89.05
2022-11-16T05:32:53.717Z,89.08
2022-11-16T05:35:21.524Z,89.13
2022-11-16T05:37:49.329Z,89.20
2022-11-16T05:40:17.195Z,89.33
2022-11-16T05:42:45.067Z,89.45
2022-11-16T05:45:17.165Z,89.55
2022-11-16T05:47:47.754Z,89.62
2022-11-16T05:50:16.178Z,89.60
2022-11-16T05:52:43.997Z,89.59
2022-11-16T05:55:11.880Z,89.63
2022-11-16T05:57:39.732Z,89.70
2022-11-16T06:00:08.673Z,89.76
2022-11-16T06:02:36.767Z,89.76
2022-11-16T06:05:05.346Z,89.92
2022-11-16T06:07:34.432Z,89.95
2022-11-16T06:10:02.474Z,89.96
2022-11-16T06:12:30.299Z,90.00
2022-11-16T06:14:58.167Z,90.10
2022-11-16T06:17:26.071Z,90.15
2022-11-16T06:19:53.858Z,90.26
2022-11-16T06:22:21.761Z,90.31
2022-11-16T06:24:49.628Z,90.38
2022-11-16T06:27:17.413Z,90.63
2022-11-16T06:29:45.259Z,90.66
2022-11-16T06:32:13.128Z,90.69
2022-11-16T06:34:40.994Z,90.79
2022-11-16T06:37:08.792Z,90.83
2022-11-16T06:39:36.723Z,90.88
2022-11-16T06:42:04.996Z,90.93
2022-11-16T06:44:32.864Z,90.96
2022-11-16T06:47:00.734Z,90.98
2022-11-16T06:49:28.693Z,91.00
2022-11-16T06:51:56.559Z,91.00
2022-11-16T06:54:24.427Z,91.01
2022-11-16T06:56:52.292Z,91.00
2022-11-16T06:59:20.156Z,91.02
2022-11-16T07:01:48.046Z,91.07
2022-11-16T07:04:16.004Z,91.04
2022-11-16T07:06:43.767Z,90.98
2022-11-16T07:09:11.620Z,90.96
2022-11-16T07:11:39.590Z,90.94
2022-11-16T07:14:07.557Z,90.92
2022-11-16T07:16:36.548Z,90.90
2022-11-16T07:19:05.390Z,90.85
2022-11-16T07:21:33.303Z,90.81
2022-11-16T07:24:01.374Z,90.83
2022-11-16T07:26:31.352Z,90.84
2022-11-16T07:29:00.413Z,90.87
2022-11-16T07:31:28.531Z,90.82
2022-11-16T07:33:56.268Z,90.72
2022-11-16T07:36:25.214Z,90.65
2022-11-16T07:38:53.075Z,90.55
2022-11-16T07:41:20.936Z,90.38
2022-11-16T07:43:52.984Z,90.24
2022-11-16T07:49:16.485Z,89.80
2022-11-16T07:51:45.882Z,89.84
2022-11-16T07:54:14.848Z,89.70
2022-11-16T07:56:42.842Z,89.56
2022-11-16T07:59:10.915Z,89.51
2022-11-16T08:01:38.887Z,89.29
2022-11-16T08:04:06.878Z,89.16
2022-11-16T08:06:34.817Z,89.20
2022-11-16T08:09:02.891Z,89.10
2022-11-16T08:11:30.754Z,88.98
2022-11-16T08:13:59.041Z,88.91
2022-11-16T08:16:27.104Z,88.84
2022-11-16T08:18:54.966Z,88.77
2022-11-16T08:21:22.834Z,88.63
2022-11-16T08:23:55.356Z,88.60
2022-11-16T08:26:27.214Z,88.73
2022-11-16T08:28:56.732Z,88.86
2022-11-16T08:31:27.724Z,88.88
2022-11-16T08:33:56.843Z,88.86
2022-11-16T08:36:24.982Z,88.98
2022-11-16T08:38:52.944Z,89.08
2022-11-16T08:41:21.321Z,89.12
2022-11-16T08:43:50.922Z,89.12
2022-11-16T08:46:19.140Z,89.20
2022-11-16T08:48:47.476Z,89.17
2022-11-16T08:51:19.589Z,89.31
2022-11-16T08:53:49.610Z,89.46
2022-11-16T08:56:18.710Z,89.59
2022-11-16T08:58:55.278Z,89.72
2022-11-16T09:01:28.611Z,89.94
2022-11-16T09:03:57.100Z,89.95
2022-11-16T09:06:27.043Z,90.06
2022-11-16T09:08:56.058Z,90.18
2022-11-16T09:11:25.516Z,90.20
2022-11-16T09:13:54.834Z,90.23
2022-11-16T09:16:23.751Z,90.30
2022-11-16T09:18:52.301Z,90.27
2022-11-16T09:21:22.506Z,90.46
2022-11-16T09:23:50.853Z,90.54
2022-11-16T09:26:21.508Z,90.55
2022-11-16T09:29:03.403Z,90.56
2022-11-16T09:31:34.948Z,90.59
2022-11-16T09:34:03.021Z,90.67
2022-11-16T09:36:31.202Z,90.68
2022-11-16T09:42:14.850Z,90.57
2022-11-16T09:44:57.665Z,90.55
2022-11-16T09:47:50.638Z,90.59
2022-11-16T09:50:27.364Z,90.54
2022-11-16T09:52:58.280Z,90.56
2022-11-16T09:55:33.365Z,90.57
2022-11-16T09:58:06.428Z,90.48
2022-11-16T10:00:36.208Z,90.50
2022-11-16T10:03:11.144Z,90.50
2022-11-16T10:05:57.493Z,90.46
2022-11-16T10:08:38.157Z,90.28
2022-11-16T10:11:21.280Z,90.24
2022-11-16T10:14:00.087Z,90.06
2022-11-16T10:16:44.907Z,90.03
2022-11-16T10:19:29.495Z,90.03
2022-11-16T10:22:15.925Z,89.99
2022-11-16T10:25:00.942Z,89.97
2022-11-16T10:27:28.966Z,90.01
2022-11-16T10:30:14.876Z,90.10
2022-11-16T10:32:59.616Z,90.14
2022-11-16T10:35:53.800Z,90.16
2022-11-16T10:38:30.573Z,90.18
2022-11-16T10:41:05.909Z,89.93
2022-11-16T10:43:35.735Z,89.80
2022-11-16T10:46:33.693Z,89.73
2022-11-16T10:49:07.446Z,89.81
2022-11-16T10:51:35.365Z,89.77
2022-11-16T10:54:11.462Z,89.70
2022-11-16T10:56:42.824Z,89.72
2022-11-16T10:59:12.335Z,89.69
2022-11-16T11:01:43.653Z,89.70
2022-11-16T11:04:17.533Z,89.73
2022-11-16T11:06:47.335Z,89.74
2022-11-16T11:09:22.982Z,89.76
2022-11-16T11:12:22.527Z,89.75
2022-11-16T11:15:04.079Z,89.78
2022-11-16T11:17:34.714Z,89.74
2022-11-16T11:20:05.866Z,89.72
2022-11-16T11:22:41.915Z,89.81
2022-11-16T11:25:30.339Z,89.82
2022-11-16T11:28:23.432Z,89.89
2022-11-16T11:30:57.629Z,89.97
2022-11-16T11:33:30.104Z,89.94
2022-11-16T11:36:07.755Z,89.95
2022-11-16T11:38:59.488Z,90.02
2022-11-16T11:41:34.252Z,90.05
2022-11-16T11:44:19.525Z,90.10
2022-11-16T11:50:05.944Z,90.03
2022-11-16T11:52:39.541Z,90.03
2022-11-16T11:55:08.839Z,90.07
2022-11-16T11:57:40.367Z,89.97
2022-11-16T12:00:09.392Z,89.91
2022-11-16T12:02:49.181Z,89.91
2022-11-16T12:05:35.324Z,89.92
2022-11-16T12:08:24.909Z,89.94
2022-11-16T12:11:03.523Z,90.00
2022-11-16T12:13:31.484Z,90.04
2022-11-16T12:16:06.343Z,90.07
2022-11-16T12:19:15.749Z,90.13
2022-11-16T12:22:12.906Z,90.17
2022-11-16T12:24:52.235Z,89.92
2022-11-16T12:27:46.729Z,89.91
2022-11-16T12:30:21.366Z,89.76
2022-11-16T12:33:13.941Z,89.69
2022-11-16T12:35:52.930Z,89.78
2022-11-16T12:38:26.051Z,89.89
2022-11-16T12:41:13.437Z,89.93
2022-11-16T12:43:47.664Z,89.98
2022-11-16T12:46:41.727Z,90.04
2022-11-16T12:49:24.954Z,90.10
2022-11-16T12:52:14.320Z,90.25
2022-11-16T12:55:28.398Z,90.37
2022-11-16T12:58:13.642Z,90.22
2022-11-16T13:01:19.202Z,90.13
2022-11-16T13:03:54.281Z,89.75
2022-11-16T13:06:57.968Z,89.04
2022-11-16T13:09:30.406Z,87.95
2022-11-16T13:12:03.514Z,87.42
2022-11-16T13:14:40.678Z,87.27
2022-11-16T13:17:15.403Z,87.23
2022-11-16T13:19:47.614Z,87.49
2022-11-16T13:22:21.802Z,87.49
2022-11-16T13:25:00.853Z,87.81
2022-11-16T13:27:36.365Z,87.87
2022-11-16T13:30:23.510Z,88.13
2022-11-16T13:33:46.223Z,88.19
2022-11-16T13:36:43.662Z,88.22
2022-11-16T13:39:22.655Z,88.42
2022-11-16T13:42:07.577Z,88.36
2022-11-16T13:44:35.339Z,88.33
2022-11-16T13:47:17.441Z,88.21
2022-11-16T13:50:16.844Z,88.26
2022-11-16T13:53:57.739Z,88.41
2022-11-16T13:55:43.241Z,88.72
2022-11-16T13:58:21.195Z,88.82
2022-11-16T14:01:08.911Z,88.86
2022-11-16T14:03:39.252Z,89.09
2022-11-16T14:06:30.199Z,89.19
2022-11-16T14:08:59.662Z,89.25
2022-11-16T14:11:38.999Z,89.24
2022-11-16T14:14:11.878Z,89.31
2022-11-16T14:16:51.317Z,89.16
2022-11-16T14:19:58.351Z,89.29
2022-11-16T14:22:28.976Z,89.38
2022-11-16T14:25:06.557Z,89.34
2022-11-16T14:27:53.224Z,89.13
2022-11-16T14:30:24.883Z,89.29
2022-11-16T14:32:56.232Z,89.27
2022-11-16T14:35:35.257Z,89.24
2022-11-16T14:38:24.623Z,89.32
2022-11-16T14:40:59.436Z,89.36
2022-11-16T14:43:33.108Z,89.22
2022-11-16T14:46:26.335Z,89.24
2022-11-16T14:49:01.447Z,89.18
2022-11-16T14:51:35.766Z,89.19
2022-11-16T14:54:32.657Z,89.33
2022-11-16T14:57:03.651Z,89.38
2022-11-16T14:59:32.543Z,89.35
2022-11-16T15:02:21.529Z,89.18
2022-11-16T15:04:51.723Z,89.40
2022-11-16T15:07:22.867Z,89.43
2022-11-16T15:09:54.521Z,89.23
2022-11-16T15:12:42.458Z,89.40
2022-11-16T15:15:10.333Z,89.32
2022-11-16T15:17:53.490Z,88.83
2022-11-16T15:20:24.282Z,88.23
2022-11-16T15:22:54.854Z,88.07
2022-11-16T15:25:28.935Z,88.06
2022-11-16T15:27:59.858Z,88.05
2022-11-16T15:30:31.202Z,88.22
2022-11-16T15:32:59.175Z,88.32
2022-11-16T15:35:35.842Z,88.16
2022-11-16T15:38:19.174Z,88.05
2022-11-16T15:40:53.725Z,87.97
2022-11-16T15:43:24.636Z,87.84
2022-11-16T15:45:54.239Z,87.73
2022-11-16T15:48:24.736Z,87.80
2022-11-16T15:51:08.555Z,87.97
2022-11-16T15:53:36.997Z,88.11
2022-11-16T15:56:26.686Z,88.60
2022-11-16T15:58:56.878Z,88.22
2022-11-16T16:01:25.919Z,88.14
2022-11-16T16:03:59.476Z,88.07
2022-11-16T16:06:48.751Z,87.83
2022-11-16T16:09:27.781Z,87.85
2022-11-16T16:12:18.981Z,87.78
2022-11-16T16:14:49.406Z,87.99
2022-11-16T16:17:26.416Z,88.09
2022-11-16T16:19:59.845Z,88.18
2022-11-16T16:22:35.877Z,88.16
2022-11-16T16:25:06.719Z,88.09
2022-11-16T16:27:40.724Z,87.80
2022-11-16T16:30:14.793Z,87.72
2022-11-16T16:32:42.659Z,87.64
2022-11-16T16:35:20.210Z,87.59
2022-11-16T16:37:58.049Z,87.67
2022-11-16T16:40:26.468Z,87.67
2022-11-16T16:42:56.038Z,87.80
2022-11-16T16:45:39.055Z,88.09
2022-11-16T16:48:09.238Z,88.05
2022-11-16T16:50:37.486Z,88.05
2022-11-16T16:53:05.725Z,88.00
2022-11-16T16:55:37.398Z,87.84
2022-11-16T16:58:06.008Z,87.80
2022-11-16T17:00:34.182Z,87.75
2022-11-16T17:03:02.100Z,87.81
2022-11-16T17:05:32.935Z,87.81
2022-11-16T17:08:01.255Z,87.71
2022-11-16T17:10:29.077Z,87.87
2022-11-16T17:12:57.771Z,87.91
2022-11-16T17:15:25.735Z,87.86
2022-11-16T17:17:53.947Z,87.77
2022-11-16T17:20:21.871Z,87.80
2022-11-16T17:22:50.043Z,88.05
2022-11-16T17:25:18.011Z,88.09
2022-11-16T17:27:45.877Z,88.19
2022-11-16T17:30:14.486Z,87.98
2022-11-16T17:32:42.530Z,87.71
2022-11-16T17:35:10.498Z,87.66
2022-11-16T17:37:38.364Z,87.70
2022-11-16T17:40:07.260Z,87.88
2022-11-16T17:42:38.090Z,87.99
2022-11-16T17:45:06.943Z,87.76
2022-11-16T17:47:34.947Z,87.84
2022-11-16T17:50:04.349Z,87.81
2022-11-16T17:52:32.140Z,87.63
2022-11-16T17:55:00.098Z,87.56
2022-11-16T17:57:27.945Z,87.50
2022-11-16T17:59:55.809Z,87.41
2022-11-16T18:02:23.673Z,87.46
2022-11-16T18:04:51.708Z,87.64
2022-11-16T18:07:19.695Z,87.48
2022-11-16T18:09:47.684Z,87.14
2022-11-16T18:12:15.445Z,86.47
2022-11-16T18:14:54.910Z,85.88
2022-11-16T18:17:31.560Z,85.52
2022-11-16T18:19:59.323Z,85.48
2022-11-16T18:22:27.184Z,85.62
2022-11-16T18:24:55.053Z,85.72
2022-11-16T18:27:23.423Z,85.62
2022-11-16T18:29:51.289Z,85.80
2022-11-16T18:32:19.153Z,85.97
2022-11-16T18:34:46.916Z,85.75
2022-11-16T18:37:14.781Z,85.69
2022-11-16T18:39:42.649Z,85.69
2022-11-16T18:42:12.405Z,85.11
2022-11-16T18:44:40.226Z,85.10
2022-11-16T18:47:08.100Z,85.16
2022-11-16T18:49:35.893Z,85.16
2022-11-16T18:52:03.922Z,85.33
2022-11-16T18:54:31.703Z,85.63
2022-11-16T18:56:59.461Z,85.65
2022-11-16T18:59:27.313Z,85.85
2022-11-16T19:01:55.115Z,85.82
2022-11-16T19:04:23.025Z,85.50
2022-11-16T19:06:50.854Z,85.50
2022-11-16T19:09:18.739Z,85.56
2022-11-16T19:11:46.666Z,85.67
2022-11-16T19:14:14.456Z,85.78
2022-11-16T19:16:52.487Z,85.52
2022-11-16T19:19:24.379Z,85.33
2022-11-16T19:21:52.335Z,85.27
2022-11-16T19:24:20.201Z,85.22
2022-11-16T19:26:47.971Z,85.46
2022-11-16T19:29:15.783Z,85.44
2022-11-16T19:31:43.700Z,85.34
2022-11-16T19:34:13.161Z,85.39
2022-11-16T19:36:41.068Z,85.32
2022-11-16T19:39:08.931Z,85.44
2022-11-16T19:41:36.798Z,85.34
2022-11-16T19:44:04.768Z,85.39
2022-11-16T19:46:34.136Z,85.37
2022-11-16T19:49:02.647Z,85.15
2022-11-16T19:51:33.292Z,85.26
2022-11-16T19:54:02.482Z,85.35
2022-11-16T19:56:30.615Z,85.17
2022-11-16T19:58:58.451Z,85.14
2022-11-16T20:01:29.260Z,84.89
2022-11-16T20:04:00.347Z,84.70
2022-11-16T20:06:36.645Z,84.73
2022-11-16T20:09:10.083Z,84.84
2022-11-16T20:11:41.124Z,84.72
2022-11-16T20:14:11.673Z,85.00
2022-11-16T20:16:41.423Z,85.03
2022-11-16T20:19:10.141Z,84.96
2022-11-16T20:21:40.345Z,84.96
2022-11-16T20:24:11.888Z,84.86
2022-11-16T20:26:44.230Z,85.03
2022-11-16T20:29:13.899Z,85.00
2022-11-16T20:31:44.399Z,85.15
2022-11-16T20:34:14.987Z,85.00
2022-11-16T20:36:45.617Z,85.27
2022-11-16T20:39:15.060Z,84.99
2022-11-16T20:41:44.189Z,84.62
2022-11-16T20:44:16.779Z,84.66
2022-11-16T20:46:45.511Z,84.76
2022-11-16T20:49:13.780Z,85.03
2022-11-16T20:51:42.002Z,84.89
2022-11-16T20:54:09.923Z,84.96
2022-11-16T20:56:37.989Z,85.24
2022-11-16T20:59:05.856Z,85.19
2022-11-16T21:01:34.114Z,85.16
2022-11-16T21:04:05.176Z,85.28
2022-11-16T21:06:33.606Z,85.39
2022-11-16T21:09:02.170Z,85.37
2022-11-16T21:11:52.217Z,85.25
2022-11-16T21:14:20.738Z,85.54
2022-11-16T21:16:48.736Z,85.63
2022-11-16T21:19:17.457Z,85.50
2022-11-16T21:21:45.316Z,85.50
2022-11-16T21:24:13.295Z,85.29
2022-11-16T21:26:41.060Z,85.34
2022-11-16T21:29:08.917Z,85.41
2022-11-16T21:31:37.498Z,85.39
2022-11-16T21:34:07.421Z,85.50
2022-11-16T21:36:36.321Z,85.63
2022-11-16T21:39:04.221Z,85.31
2022-11-16T21:41:32.133Z,85.21
2022-11-16T21:43:59.902Z,85.24
2022-11-16T21:46:28.116Z,85.58
2022-11-16T21:48:56.786Z,85.39
2022-11-16T21:51:27.202Z,85.21
2022-11-16T21:53:55.586Z,84.96
2022-11-16T21:56:25.461Z,84.71
2022-11-16T21:58:53.853Z,84.58
2022-11-16T22:01:23.821Z,84.74
2022-11-16T22:04:11.681Z,84.83
2022-11-16T22:06:57.967Z,84.62
2022-11-16T22:09:25.863Z,84.50
2022-11-16T22:14:57.850Z,84.38
2022-11-16T22:17:26.228Z,84.21
2022-11-16T22:19:54.606Z,84.40
2022-11-16T22:22:23.191Z,84.56
2022-11-16T22:24:51.666Z,84.34
2022-11-16T22:27:19.955Z,84.35
2022-11-16T22:29:47.808Z,84.29
2022-11-16T22:32:15.678Z,84.05
2022-11-16T22:34:43.643Z,83.94
2022-11-16T22:37:11.710Z,83.75
2022-11-16T22:39:39.578Z,83.91
2022-11-16T22:42:07.443Z,83.75
2022-11-16T22:44:35.518Z,83.62
2022-11-16T22:47:03.793Z,83.63
2022-11-16T22:49:31.760Z,83.56
2022-11-16T22:51:59.723Z,83.54
2022-11-16T22:54:28.616Z,83.86
2022-11-16T22:56:56.996Z,83.67
2022-11-16T22:59:24.808Z,83.67
2022-11-16T23:01:52.624Z,83.45
2022-11-16T23:04:20.595Z,83.24
2022-11-16T23:06:49.517Z,83.25
2022-11-16T23:09:17.654Z,83.35
2022-11-16T23:12:03.853Z,83.14
2022-11-16T23:14:50.249Z,83.07
2022-11-16T23:17:18.118Z,82.76
2022-11-16T23:20:04.619Z,82.40
2022-11-16T23:22:50.816Z,82.48
2022-11-16T23:25:37.620Z,82.16
2022-11-16T23:28:12.865Z,82.37
2022-11-16T23:30:41.340Z,82.07
2022-11-16T23:33:10.002Z,81.92
2022-11-16T23:35:38.405Z,82.29
2022-11-16T23:38:07.907Z,82.02
2022-11-16T23:40:38.227Z,81.87
2022-11-16T23:43:25.959Z,81.65
2022-11-16T23:45:53.827Z,81.93
2022-11-16T23:48:21.688Z,81.93
2022-11-16T23:50:49.657Z,81.44
2022-11-16T23:53:17.526Z,81.50
2022-11-16T23:55:45.392Z,81.45
2022-11-16T23:58:14.897Z,81.11
